Time;durP1;ratioP1;P1;durP2;ratioP2;P2;SDS_P1;SDS_P2;PMS_P1;PMS_P2;Temp;Humidity;BMP_temperature;BMP_pressure;BME280_temperature;BME280_humidity;BME280_pressure;Samples;Min_cycle;Max_cycle;Signal;HPM_P1;HPM_P2
2021/04/13 00:00:32;;;;;;;9.98;6.92;;;;;;;21.00;39.35;100915.80;1710574;81;21206;-62
2021/04/13 00:03:05;;;;;;;8.03;6.22;;;;;;;21.01;39.34;100914.64;1700510;83;21314;-62
2021/04/13 00:05:42;;;;;;;10.65;6.53;;;;;;;21.01;39.32;100902.75;1692115;83;21270;-62
2021/04/13 00:08:15;;;;;;;9.00;6.33;;;;;;;21.00;39.29;100902.53;1712613;81;21063;-62
2021/04/13 00:10:53;;;;;;;10.18;6.58;;;;;;;20.97;39.24;100895.10;1690974;83;21233;-62
2021/04/13 00:13:21;;;;;;;8.38;6.17;;;;;;;20.97;39.22;100897.05;1714112;81;21620;-62
2021/04/13 00:15:52;;;;;;;8.63;5.72;;;;;;;20.94;39.16;100897.13;1701053;82;21342;-62
2021/04/13 00:18:28;;;;;;;8.68;6.30;;;;;;;20.92;39.11;100893.84;1683700;83;22492;-62
2021/04/13 00:21:03;;;;;;;8.63;5.95;;;;;;;20.90;39.00;100890.60;1718409;81;21205;-62
2021/04/13 00:23:33;;;;;;;7.67;5.80;;;;;;;20.88;38.89;100890.09;1704080;82;21940;-61
2021/04/13 00:26:02;;;;;;;10.63;6.45;;;;;;;20.86;38.81;100884.64;1687051;82;21198;-61
2021/04/13 00:28:34;;;;;;;8.35;5.83;;;;;;;20.83;38.75;100886.10;1710684;82;21208;-62
2021/04/13 00:31:04;;;;;;;10.30;5.97;;;;;;;20.81;38.67;100888.35;1698556;82;22427;-62
2021/04/13 00:33:35;;;;;;;9.65;6.55;;;;;;;20.78;38.62;100879.31;1681506;84;21240;-62
2021/04/13 00:36:11;;;;;;;10.88;6.58;;;;;;;20.77;38.59;100882.39;1687299;84;21499;-61
2021/04/13 00:38:49;;;;;;;8.63;5.90;;;;;;;20.75;38.57;100877.76;1716079;81;21210;-61
2021/04/13 00:41:31;;;;;;;10.13;6.15;;;;;;;20.73;38.51;100875.86;1709006;81;21193;-61
2021/04/13 00:44:06;;;;;;;7.92;5.62;;;;;;;20.74;38.52;100871.97;1709956;81;21616;-61
2021/04/13 00:46:48;;;;;;;9.10;6.25;;;;;;;20.74;38.53;100872.79;1707286;81;21216;-61
2021/04/13 00:49:16;;;;;;;7.15;5.35;;;;;;;20.77;38.54;100876.30;1676250;83;21223;-61
2021/04/13 00:51:48;;;;;;;7.97;5.90;;;;;;;20.81;38.58;100879.23;1703113;81;21376;-61
2021/04/13 00:54:30;;;;;;;7.10;4.70;;;;;;;20.86;38.61;100880.49;1689404;83;21178;-61
2021/04/13 00:56:57;;;;;;;6.15;4.47;;;;;;;20.89;38.65;100875.13;1711184;81;21211;-61
2021/04/13 00:59:23;;;;;;;8.48;5.28;;;;;;;20.94;38.65;100871.42;1687856;82;21252;-61
2021/04/13 01:01:59;;;;;;;6.30;4.58;;;;;;;20.97;38.70;100877.69;1663080;82;21240;-61
2021/04/13 01:04:33;;;;;;;7.72;4.65;;;;;;;21.01;38.72;100869.56;1699701;82;21220;-61
2021/04/13 01:07:10;;;;;;;7.28;4.87;;;;;;;21.04;38.72;100871.72;1715072;81;21245;-61
2021/04/13 01:09:49;;;;;;;6.22;4.92;;;;;;;21.06;38.73;100866.66;1676306;82;21296;-61
2021/04/13 01:12:23;;;;;;;7.00;4.87;;;;;;;21.09;38.77;100860.52;1714963;80;21243;-62
2021/04/13 01:14:51;;;;;;;8.13;5.17;;;;;;;21.10;38.77;100860.73;1734161;81;21236;-61
2021/04/13 01:17:18;;;;;;;8.68;5.83;;;;;;;21.11;38.77;100856.28;1728335;81;21196;-61
2021/04/13 01:20:10;;;;;;;8.30;4.97;;;;;;;21.12;38.80;100858.48;1731539;81;21300;-61
2021/04/13 01:22:52;;;;;;;7.62;5.17;;;;;;;21.12;38.80;100851.56;1734031;81;21591;-61
2021/04/13 01:25:29;;;;;;;8.43;5.55;;;;;;;21.13;38.83;100851.85;1726171;81;21276;-61
2021/04/13 01:27:59;;;;;;;;;;;;;;;21.11;38.83;100847.98;1735080;81;21200;-61
2021/04/13 01:30:38;;;;;;;7.92;5.20;;;;;;;21.10;38.87;100843.58;1731147;81;20254;-62
2021/04/13 01:33:18;;;;;;;6.83;4.95;;;;;;;21.08;38.90;100837.56;1735375;81;21183;-61
2021/04/13 01:35:53;;;;;;;7.65;5.67;;;;;;;21.07;38.91;100840.08;1732485;81;21198;-61
2021/04/13 01:43:46;;;;;;;9.65;5.67;;;;;;;21.02;38.91;100836.06;1728317;81;21188;-59
2021/04/13 01:46:13;;;;;;;9.03;5.60;;;;;;;20.98;38.89;100827.59;1735316;81;21117;-61
2021/04/13 01:48:40;;;;;;;9.18;5.83;;;;;;;20.96;38.90;100826.30;1730104;81;22365;-61
2021/04/13 01:51:08;;;;;;;8.00;6.05;;;;;;;20.94;38.91;100825.22;1732175;81;21628;-60
2021/04/13 01:53:37;;;;;;;8.60;5.58;;;;;;;20.93;38.91;100824.97;1730526;81;21213;-61
2021/04/13 01:56:08;;;;;;;7.87;6.12;;;;;;;20.93;38.91;100826.34;1733393;81;21220;-61
2021/04/13 01:58:48;;;;;;;8.80;6.03;;;;;;;20.94;38.91;100820.25;1736959;81;21145;-61
2021/04/13 02:01:36;;;;;;;10.58;5.70;;;;;;;21.00;38.88;100820.94;1841884;76;22827;-61
2021/04/13 02:04:33;;;;;;;9.55;6.55;;;;;;;20.93;38.88;100815.28;1748930;80;21295;-61
2021/04/13 02:07:28;;;;;;;10.70;6.90;;;;;;;20.92;38.86;100817.80;1765429;79;21438;-61
2021/04/13 02:09:53;;;;;;;10.20;6.75;;;;;;;20.91;38.84;100811.22;1730315;79;21116;-61
2021/04/13 02:12:25;;;;;;;10.18;6.65;;;;;;;20.88;38.78;100804.36;1765687;79;21163;-61
2021/04/13 02:15:12;;;;;;;10.40;7.28;;;;;;;20.86;38.75;100805.27;1748776;80;21048;-60
2021/04/13 02:17:43;;;;;;;13.60;7.17;;;;;;;20.84;38.67;100807.52;1776406;79;21060;-60
2021/04/13 02:20:12;;;;;;;10.55;7.12;;;;;;;20.80;38.59;100809.29;1749457;80;21197;-61
2021/04/13 02:22:44;;;;;;;12.07;7.10;;;;;;;20.78;38.52;100807.98;1749099;80;21064;-61
2021/04/13 02:25:14;;;;;;;12.13;7.22;;;;;;;20.76;38.44;100809.67;1759235;79;21001;-60
2021/04/13 02:27:41;;;;;;;12.55;7.67;;;;;;;20.75;38.37;100808.63;1802847;77;21211;-60
2021/04/13 02:30:15;;;;;;;13.32;7.37;;;;;;;20.72;38.27;100806.48;1803640;77;21179;-60
2021/04/13 02:32:45;;;;;;;11.03;7.12;;;;;;;20.69;38.22;100802.42;1806300;77;21279;-60
2021/04/13 02:35:19;;;;;;;11.10;6.55;;;;;;;20.68;38.21;100799.40;1809000;77;21201;-60
2021/04/13 02:37:52;;;;;;;9.40;6.50;;;;;;;20.68;38.25;100802.73;1799641;77;21139;-61
2021/04/13 02:40:33;;;;;;;10.88;6.47;;;;;;;20.69;38.27;100798.27;1805283;77;21162;-60
2021/04/13 02:43:03;;;;;;;10.63;6.60;;;;;;;20.71;38.28;100805.67;1802337;77;21145;-60
2021/04/13 02:45:56;;;;;;;12.95;7.10;;;;;;;20.73;38.27;100803.41;1802329;77;21057;-60
2021/04/13 02:48:30;;;;;;;9.45;6.30;;;;;;;20.76;38.31;100812.44;1683412;83;21620;-61
2021/04/13 02:51:02;;;;;;;12.47;6.37;;;;;;;20.80;38.36;100805.14;1710801;82;21205;-61
2021/04/13 02:53:44;;;;;;;9.05;5.90;;;;;;;20.85;38.35;100803.63;1709477;82;22132;-60
2021/04/13 02:56:23;;;;;;;10.43;6.10;;;;;;;20.90;38.37;100799.91;1712069;82;21787;-61
2021/04/13 02:59:16;;;;;;;11.43;7.37;;;;;;;20.97;38.39;100802.45;1843514;75;27878;-61
2021/04/13 03:02:11;;;;;;;10.38;6.35;;;;;;;21.10;38.22;100804.02;1832735;77;21138;-61
2021/04/13 03:04:42;;;;;;;9.93;6.58;;;;;;;21.11;38.26;100800.95;1828614;77;21198;-60
2021/04/13 03:07:14;;;;;;;9.03;5.85;;;;;;;21.12;38.27;100805.92;1832240;77;21100;-60
2021/04/13 03:09:41;;;;;;;10.72;6.15;;;;;;;21.13;38.29;100802.05;1836285;77;22206;-61
2021/04/13 03:12:09;;;;;;;8.65;5.95;;;;;;;21.12;38.31;100793.47;1827619;77;21252;-60
2021/04/13 03:14:42;;;;;;;10.60;6.08;;;;;;;21.12;38.35;100793.47;1826931;77;20988;-60
2021/04/13 03:17:13;;;;;;;10.40;6.87;;;;;;;21.11;38.35;100791.83;1828345;77;22133;-60
2021/04/13 03:19:40;;;;;;;9.98;6.53;;;;;;;21.10;38.40;100795.73;1832413;76;21285;-60
2021/04/13 03:22:07;;;;;;;10.08;6.28;;;;;;;21.09;38.40;100794.13;1835681;77;22440;-60
2021/04/13 03:24:41;;;;;;;11.55;6.90;;;;;;;21.08;38.41;100791.10;1828170;77;21168;-60
2021/04/13 03:27:12;;;;;;;9.90;6.37;;;;;;;21.06;38.39;100796.13;1831373;77;21631;-60
2021/04/13 03:29:52;;;;;;;11.43;6.78;;;;;;;21.04;38.39;100799.23;1831723;77;21199;-61
2021/04/13 03:32:22;;;;;;;9.70;6.50;;;;;;;21.01;38.40;100794.88;1832867;77;21582;-61
2021/04/13 03:34:49;;;;;;;9.78;6.65;;;;;;;20.99;38.41;100796.60;1831773;77;21111;-61
2021/04/13 03:37:15;;;;;;;10.98;6.20;;;;;;;20.95;38.37;100792.28;1827405;77;21098;-61
2021/04/13 03:39:45;;;;;;;9.00;5.87;;;;;;;20.93;38.37;100789.58;1805046;77;21191;-61
2021/04/13 03:42:17;;;;;;;9.65;6.92;;;;;;;20.91;38.35;100794.06;1830441;77;22215;-62
2021/04/13 03:44:44;;;;;;;10.50;6.15;;;;;;;20.88;38.31;100785.56;1833974;76;21102;-62
2021/04/13 03:47:17;;;;;;;11.65;6.15;;;;;;;20.84;38.28;100785.39;1830630;77;21224;-61
2021/04/13 03:49:43;;;;;;;11.93;6.47;;;;;;;20.83;38.28;100783.78;1835874;77;21575;-59
2021/04/13 03:52:29;;;;;;;12.05;6.60;;;;;;;20.82;38.28;100785.48;1828668;77;21151;-60
2021/04/13 03:54:56;;;;;;;10.63;6.28;;;;;;;20.83;38.27;100781.59;1826465;77;21221;-62
2021/04/13 03:57:34;;;;;;;9.65;6.22;;;;;;;20.82;38.27;100787.67;1838392;77;21615;-61
2021/04/13 04:00:05;;;;;;;14.53;6.42;;;;;;;20.82;38.27;100784.91;1840056;77;21169;-62
2021/04/13 04:02:32;;;;;;;9.23;5.55;;;;;;;20.82;38.24;100793.77;1836860;77;21183;-61
2021/04/13 04:05:11;;;;;;;9.10;6.45;;;;;;;20.81;38.26;100789.37;1834450;76;21594;-62
2021/04/13 04:08:05;;;;;;;12.20;6.35;;;;;;;20.81;38.24;100797.10;1833655;76;21358;-62
2021/04/13 04:10:32;;;;;;;8.83;5.83;;;;;;;20.82;38.27;100798.73;1835505;76;21548;-61
2021/04/13 04:13:06;;;;;;;12.98;7.62;;;;;;;20.84;38.26;100799.78;1841187;77;21214;-68
2021/04/13 04:15:50;;;;;;;10.90;7.20;;;;;;;20.87;38.13;100802.75;1839652;77;21169;-63
2021/04/13 04:18:30;;;;;;;10.15;6.60;;;;;;;20.89;37.90;100803.80;1834838;77;21304;-60
2021/04/13 04:20:58;;;;;;;9.83;5.67;;;;;;;20.92;37.93;100803.97;1838009;77;21164;-61
2021/04/13 04:23:31;;;;;;;11.80;7.05;;;;;;;20.96;37.98;100812.47;1834210;77;21213;-63
2021/04/13 04:26:05;;;;;;;11.45;7.03;;;;;;;21.02;37.95;100814.50;1835450;77;21235;-63
2021/04/13 04:28:41;;;;;;;9.68;6.08;;;;;;;21.05;37.85;100808.34;1836336;77;21177;-65
2021/04/13 04:31:35;;;;;;;8.20;5.72;;;;;;;21.09;37.80;100815.66;1781196;78;21144;-61
2021/04/13 04:34:19;;;;;;;10.35;5.83;;;;;;;21.14;37.84;100824.41;1768810;78;22229;-60
2021/04/13 04:36:54;;;;;;;12.75;6.08;;;;;;;21.17;37.86;100818.26;1784238;79;21220;-62
2021/04/13 04:39:33;;;;;;;11.50;6.60;;;;;;;21.17;37.91;100824.61;1765347;80;21092;-62
2021/04/13 04:42:12;;;;;;;7.75;5.65;;;;;;;21.20;38.00;100827.30;1771588;79;21615;-61
2021/04/13 04:44:39;;;;;;;11.60;6.12;;;;;;;21.20;38.09;100827.30;1778321;79;21540;-61
2021/04/13 04:47:32;;;;;;;13.55;6.80;;;;;;;21.21;38.21;100826.16;1776231;79;21392;-62
2021/04/13 04:49:58;;;;;;;16.57;6.40;;;;;;;21.22;38.30;100829.97;1777465;79;21205;-58
2021/04/13 04:52:25;;;;;;;7.87;5.72;;;;;;;21.24;38.41;100826.33;1775580;79;21214;-61
2021/04/13 04:54:51;;;;;;;9.33;6.03;;;;;;;21.27;38.52;100831.78;1767586;79;21195;-58
2021/04/13 04:57:18;;;;;;;7.70;5.25;;;;;;;21.29;38.64;100828.13;1770678;79;21129;-58
2021/04/13 04:59:45;;;;;;;8.45;6.00;;;;;;;21.33;38.76;100830.50;1796626;78;21626;-67
2021/04/13 05:02:11;;;;;;;9.65;5.67;;;;;;;21.36;38.87;100830.67;1773133;79;21595;-63
2021/04/13 05:04:37;;;;;;;14.90;6.72;;;;;;;21.40;38.97;100828.07;1779056;78;21038;-63
2021/04/13 05:07:05;;;;;;;8.65;5.67;;;;;;;21.48;39.10;100829.22;1778937;78;21206;-62
2021/04/13 05:09:31;;;;;;;9.35;5.53;;;;;;;21.55;39.18;100830.39;1771752;79;21168;-61
2021/04/13 05:11:59;;;;;;;11.45;5.37;;;;;;;21.64;39.25;100829.02;1776266;79;21244;-62
2021/04/13 05:14:25;;;;;;;7.55;4.78;;;;;;;21.70;39.36;100836.02;1799730;78;21902;-61
2021/04/13 05:16:53;;;;;;;7.42;4.58;;;;;;;21.75;39.49;100834.48;1788881;78;21318;-60
2021/04/13 05:19:21;;;;;;;9.35;5.08;;;;;;;21.79;39.62;100826.58;1776230;78;21643;-61
2021/04/13 05:21:48;;;;;;;8.05;5.12;;;;;;;21.85;39.74;100828.63;1781410;78;21559;-62
2021/04/13 05:24:15;;;;;;;10.30;5.85;;;;;;;21.90;39.85;100834.59;1801004;78;21208;-63
2021/04/13 05:26:42;;;;;;;7.97;5.05;;;;;;;21.93;39.95;100829.80;1778537;78;21161;-63
2021/04/13 05:29:08;;;;;;;7.58;5.03;;;;;;;21.97;40.05;100832.16;1798299;78;21170;-63
2021/04/13 05:31:37;;;;;;;9.18;4.60;;;;;;;21.99;40.15;100832.06;1797297;78;21130;-63
2021/04/13 05:34:03;;;;;;;8.25;4.78;;;;;;;22.02;40.23;100828.66;1780800;78;21186;-64
2021/04/13 05:36:31;;;;;;;7.25;4.40;;;;;;;22.04;40.32;100822.78;1761708;78;21659;-65
2021/04/13 05:38:57;;;;;;;6.78;4.25;;;;;;;22.05;40.41;100828.00;1798910;79;21191;-64
2021/04/13 05:41:24;;;;;;;6.85;4.53;;;;;;;22.06;40.45;100831.02;1783786;79;21141;-64
2021/04/13 05:43:51;;;;;;;7.92;4.25;;;;;;;22.05;40.52;100834.11;1778014;79;21321;-63
2021/04/13 05:46:19;;;;;;;8.38;5.37;;;;;;;22.04;40.59;100830.52;1777764;79;21242;-66
2021/04/13 05:48:46;;;;;;;10.25;5.47;;;;;;;22.05;40.64;100835.50;1771631;79;22190;-63
2021/04/13 05:51:13;;;;;;;7.20;4.78;;;;;;;22.06;40.68;100828.82;1770103;79;21080;-66
2021/04/13 05:53:39;;;;;;;11.95;4.85;;;;;;;22.08;40.74;100830.11;1774507;79;21149;-63
2021/04/13 05:56:06;;;;;;;8.83;4.67;;;;;;;22.09;40.76;100828.16;1771392;79;21177;-61
2021/04/13 05:58:36;;;;;;;9.33;5.20;;;;;;;22.09;40.81;100826.77;1796946;78;21187;-62
2021/04/13 06:01:05;;;;;;;8.00;4.55;;;;;;;22.10;40.84;100829.80;1806408;78;21210;-62
2021/04/13 06:03:31;;;;;;;6.67;4.55;;;;;;;22.11;40.89;100832.78;1810521;78;21197;-67
2021/04/13 06:05:58;;;;;;;8.55;5.25;;;;;;;22.12;40.94;100831.66;1811735;78;21213;-65
2021/04/13 06:08:25;;;;;;;9.00;4.87;;;;;;;22.12;40.99;100835.24;1812586;78;21153;-65
2021/04/13 06:10:53;;;;;;;8.03;4.42;;;;;;;22.11;41.00;100829.45;1808418;78;21142;-65
2021/04/13 06:13:21;;;;;;;7.72;4.35;;;;;;;22.10;41.04;100831.18;1804761;78;21244;-65
2021/04/13 06:15:50;;;;;;;7.05;4.33;;;;;;;22.07;41.09;100827.09;1804340;78;21142;-65
2021/04/13 06:18:16;;;;;;;7.37;4.50;;;;;;;22.04;41.12;100825.55;1809239;78;23420;-65
2021/04/13 06:20:43;;;;;;;7.25;4.45;;;;;;;22.04;41.18;100827.75;1811432;78;21226;-64
2021/04/13 06:23:09;;;;;;;8.05;4.28;;;;;;;22.03;41.24;100833.61;1774545;78;21327;-64
2021/04/13 06:25:36;;;;;;;5.75;3.83;;;;;;;22.04;41.30;100828.32;1778989;79;21248;-64
2021/04/13 06:28:02;;;;;;;7.05;3.85;;;;;;;22.04;41.32;100833.86;1775825;79;21240;-63
2021/04/13 06:30:31;;;;;;;6.37;4.05;;;;;;;22.04;41.34;100830.52;1784676;79;21608;-63
2021/04/13 06:32:58;;;;;;;8.25;4.55;;;;;;;22.02;41.41;100830.05;1789512;79;21247;-62
2021/04/13 06:35:25;;;;;;;7.05;4.12;;;;;;;22.00;41.47;100834.27;1791147;78;21222;-64
2021/04/13 06:37:54;;;;;;;6.95;4.15;;;;;;;21.99;41.53;100835.41;1790816;78;22183;-59
2021/04/13 06:41:02;;;;;;;8.43;4.47;;;;;;;21.98;41.58;100824.10;1787906;79;21216;-58
2021/04/13 06:43:53;;;;;;;6.45;4.33;;;;;;;21.94;41.66;100819.76;1782185;79;21221;-58
2021/04/13 06:46:43;;;;;;;6.95;4.33;;;;;;;21.90;41.79;100819.34;1787654;79;21192;-59
2021/04/13 06:49:30;;;;;;;7.40;4.42;;;;;;;21.86;41.87;100824.70;1778969;79;21189;-60
2021/04/13 06:52:40;;;;;;;6.10;4.53;;;;;;;21.80;41.98;100825.45;1814637;78;21225;-59
2021/04/13 06:56:01;;;;;;;8.50;4.78;;;;;;;21.75;42.12;100833.91;1803944;78;21217;-60
2021/04/13 06:58:58;;;;;;;6.80;4.50;;;;;;;21.70;42.23;100816.63;1817849;77;21250;-59
2021/04/13 07:01:35;;;;;;;7.00;4.47;;;;;;;21.64;42.32;100817.34;1782323;79;21177;-58
2021/04/13 07:04:35;;;;;;;5.80;3.95;;;;;;;21.58;42.41;100817.84;1785262;79;21160;-59
2021/04/13 07:07:09;;;;;;;5.85;4.12;;;;;;;21.55;42.50;100815.73;1782904;78;21244;-59
2021/04/13 07:09:39;;;;;;;5.95;3.85;;;;;;;21.53;42.61;100820.77;1757307;80;21213;-59
2021/04/13 07:12:32;;;;;;;5.08;3.75;;;;;;;21.55;42.68;100812.97;1739126;80;21509;-59
2021/04/13 07:15:18;;;;;;;7.20;3.80;;;;;;;21.58;42.77;100811.74;1768261;79;21173;-59
2021/04/13 07:18:05;;;;;;;5.03;3.40;;;;;;;21.65;42.87;100818.17;1766459;79;21188;-59
2021/04/13 07:21:10;;;;;;;6.60;3.75;;;;;;;21.73;42.91;100814.59;1767281;79;21079;-58
2021/04/13 07:23:44;;;;;;;6.08;3.83;;;;;;;21.81;42.93;100811.03;1779550;78;21113;-59
2021/04/13 07:26:24;;;;;;;5.85;3.45;;;;;;;21.90;42.94;100814.59;1768716;78;21232;-60
2021/04/13 07:32:21;;;;;;;7.40;4.90;;;;;;;22.10;42.97;100811.22;1824348;76;28437;-60
2021/04/13 07:34:53;;;;;;;;;;;;;;;22.23;43.09;100806.07;1773921;79;21491;-60
2021/04/13 07:37:42;;;;;;;6.10;3.58;;;;;;;22.26;43.15;100805.97;1773241;79;20230;-60
2021/04/13 07:40:16;;;;;;;4.87;3.47;;;;;;;22.29;43.13;100803.92;1770194;79;21083;-59
2021/04/13 07:42:56;;;;;;;5.90;3.20;;;;;;;22.30;43.12;100799.44;1770264;79;21175;-60
2021/04/13 07:45:34;;;;;;;4.97;3.58;;;;;;;22.33;43.11;100806.27;1768758;79;21230;-60
2021/04/13 07:48:16;;;;;;;5.67;3.40;;;;;;;22.35;43.12;100800.41;1771752;79;21165;-60
2021/04/13 07:51:14;;;;;;;5.85;3.35;;;;;;;22.35;43.13;100799.03;1771211;79;21214;-60
2021/04/13 07:54:18;;;;;;;4.92;3.50;;;;;;;22.36;43.16;100784.03;1736442;80;21913;-59
2021/04/13 07:56:52;;;;;;;4.72;3.37;;;;;;;22.35;43.14;100783.78;1774120;79;21396;-59
2021/04/13 07:59:35;;;;;;;5.78;3.47;;;;;;;22.34;43.17;100780.19;1770519;79;21210;-64
2021/04/13 08:02:01;;;;;;;5.00;3.00;;;;;;;22.35;43.20;100785.98;1767727;79;21218;-60
2021/04/13 08:04:29;;;;;;;4.12;2.98;;;;;;;22.35;43.21;100784.59;1770112;79;21325;-64
2021/04/13 08:07:19;;;;;;;4.50;3.12;;;;;;;22.35;43.25;100773.52;1768692;79;21019;-59
2021/04/13 08:10:21;;;;;;;4.97;3.30;;;;;;;22.35;43.30;100773.52;1768964;79;21242;-60
2021/04/13 08:12:56;;;;;;;5.47;3.35;;;;;;;22.35;43.33;100769.35;1767998;79;21230;-60
2021/04/13 08:15:44;;;;;;;3.65;2.60;;;;;;;22.33;43.39;100772.44;1769335;79;21231;-60
2021/04/13 08:18:18;;;;;;;3.83;2.72;;;;;;;22.33;43.44;100773.83;1769518;79;21637;-60
2021/04/13 08:20:46;;;;;;;6.80;3.87;;;;;;;22.31;43.51;100769.20;1753503;81;21879;-63
2021/04/13 08:23:31;;;;;;;4.95;3.08;;;;;;;22.29;43.54;100761.77;1768834;79;21627;-64
2021/04/13 08:26:19;;;;;;;4.17;2.70;;;;;;;22.31;43.56;100765.61;1769772;79;21286;-64
2021/04/13 08:29:10;;;;;;;4.42;2.90;;;;;;;22.31;43.55;100759.50;1764920;79;21207;-64
2021/04/13 08:34:56;;;;;;;4.60;2.62;;;;;;;22.32;43.52;100763.88;1772042;79;21203;-64
2021/04/13 08:37:47;;;;;;;3.70;2.67;;;;;;;22.34;43.50;100759.40;1751528;79;21142;-63
2021/04/13 08:40:23;;;;;;;3.95;2.52;;;;;;;22.34;43.49;100764.95;1770033;79;21091;-63
2021/04/13 08:43:39;;;;;;;3.55;2.77;;;;;;;22.36;43.49;100761.86;1769021;79;21234;-63
2021/04/13 08:46:12;;;;;;;4.70;2.55;;;;;;;22.38;43.48;100759.55;1827579;76;21283;-64
2021/04/13 08:49:10;;;;;;;5.05;2.72;;;;;;;22.43;43.50;100750.49;1884240;74;22380;-64
2021/04/13 08:51:47;;;;;;;4.78;2.40;;;;;;;22.41;43.49;100757.49;1852380;75;21130;-64
2021/04/13 08:54:29;;;;;;;3.72;2.25;;;;;;;22.41;43.50;100748.61;1860968;75;22591;-64
2021/04/13 08:57:13;;;;;;;3.90;2.27;;;;;;;22.43;43.50;100750.49;1846492;75;21074;-64
2021/04/13 08:59:50;;;;;;;2.65;2.27;;;;;;;22.43;43.50;100739.41;1842281;75;21063;-63
2021/04/13 09:02:32;;;;;;;3.62;2.40;;;;;;;22.44;43.52;100733.29;1853193;75;21194;-63
2021/04/13 09:05:21;;;;;;;3.55;2.22;;;;;;;22.45;43.51;100732.16;1847680;75;21248;-63
2021/04/13 09:07:56;;;;;;;3.27;2.33;;;;;;;22.45;43.52;100726.01;1854372;75;21501;-63
2021/04/13 09:10:40;;;;;;;3.72;2.10;;;;;;;22.46;43.52;100730.41;1812871;77;21237;-63
2021/04/13 09:13:26;;;;;;;2.87;2.00;;;;;;;22.45;43.53;100720.47;1814495;77;21425;-63
2021/04/13 09:16:13;;;;;;;3.05;2.00;;;;;;;22.46;43.53;100712.39;1808363;77;21766;-63
2021/04/13 09:18:50;;;;;;;3.37;2.10;;;;;;;22.47;43.57;100707.67;1775855;77;21212;-62
2021/04/13 09:21:42;;;;;;;3.05;2.47;;;;;;;22.50;43.58;100712.54;1788614;78;21211;-62
2021/04/13 09:24:30;;;;;;;3.75;2.12;;;;;;;22.52;43.58;100706.10;1798153;78;21151;-63
2021/04/13 09:27:17;;;;;;;3.58;2.12;;;;;;;22.53;43.60;100709.91;1801791;78;21198;-64
2021/04/13 09:29:50;;;;;;;3.25;2.00;;;;;;;22.55;43.58;100704.04;1795465;78;21186;-64
2021/04/13 09:32:37;;;;;;;3.65;2.00;;;;;;;22.57;43.58;100701.19;1789888;78;21257;-64
2021/04/13 09:35:42;;;;;;;5.85;2.60;;;;;;;22.59;43.58;100694.72;1776279;79;21515;-64
2021/04/13 09:38:44;;;;;;;4.78;2.20;;;;;;;22.60;43.56;100694.16;1813064;77;21186;-64
2021/04/13 09:41:39;;;;;;;2.08;1.70;;;;;;;22.59;43.54;100686.41;1786474;78;21190;-64
2021/04/13 09:44:46;;;;;;;2.15;1.72;;;;;;;22.59;43.56;100678.66;1784715;78;21169;-64
2021/04/13 09:47:56;;;;;;;3.33;1.90;;;;;;;22.58;43.56;100673.69;1751376;77;21142;-64
2021/04/13 09:51:09;;;;;;;2.52;1.72;;;;;;;22.58;43.54;100676.45;1789627;79;21230;-64
2021/04/13 09:54:01;;;;;;;3.37;1.98;;;;;;;22.59;43.53;100673.93;1818000;77;21636;-64
2021/04/13 09:56:33;;;;;;;3.00;1.72;;;;;;;22.59;43.52;100673.11;1818949;77;21487;-63
2021/04/13 09:59:41;;;;;;;3.12;2.10;;;;;;;22.58;43.52;100667.32;1790399;78;21210;-64
2021/04/13 10:02:41;;;;;;;2.37;1.70;;;;;;;22.58;43.53;100664.55;1818055;78;21173;-63
2021/04/13 10:05:13;;;;;;;3.55;1.57;;;;;;;22.59;43.57;100659.25;1816021;77;23544;-64
2021/04/13 10:08:09;;;;;;;2.45;1.55;;;;;;;22.61;43.56;100654.20;1789603;78;21159;-64
2021/04/13 10:10:49;;;;;;;5.87;2.00;;;;;;;22.62;43.57;100658.56;1820423;77;21038;-64
2021/04/13 10:13:24;;;;;;;3.70;2.05;;;;;;;22.63;43.55;100653.27;1809879;77;21491;-64
2021/04/13 10:16:08;;;;;;;3.55;1.45;;;;;;;22.65;43.54;100656.53;1804615;77;21194;-64
2021/04/13 10:19:32;;;;;;;2.80;1.90;;;;;;;22.67;43.52;100647.30;1817829;77;21110;-65
2021/04/13 10:22:40;;;;;;;4.70;1.92;;;;;;;22.70;43.51;100646.07;1810584;77;21209;-64
2021/04/13 10:25:31;;;;;;;2.75;1.60;;;;;;;22.73;43.48;100644.03;1817678;77;21591;-64
2021/04/13 10:28:37;;;;;;;2.37;1.80;;;;;;;22.77;43.44;100634.47;1823963;77;21090;-63
2021/04/13 10:31:44;;;;;;;3.25;1.75;;;;;;;22.79;43.46;100635.53;1692909;82;21174;-64
2021/04/13 10:34:39;;;;;;;4.33;1.52;;;;;;;22.82;43.42;100629.30;1713157;81;21217;-65
2021/04/13 10:37:35;;;;;;;3.62;1.90;;;;;;;22.84;43.42;100636.69;1773862;79;21642;-64
2021/04/13 10:40:28;;;;;;;2.35;1.52;;;;;;;22.85;43.40;100628.61;1813010;77;21626;-64
2021/04/13 10:43:26;;;;;;;2.85;1.55;;;;;;;22.87;43.38;100627.72;1810941;77;21134;-65
2021/04/13 10:46:17;;;;;;;2.67;1.98;;;;;;;22.89;43.35;100624.02;1816578;77;21166;-64
2021/04/13 10:49:33;;;;;;;3.42;1.60;;;;;;;22.92;43.27;100617.78;1808641;78;21401;-64
2021/04/13 10:52:18;;;;;;;2.20;1.65;;;;;;;22.95;43.18;100624.06;1804899;78;21981;-65
2021/04/13 10:55:22;;;;;;;2.90;1.60;;;;;;;22.97;43.09;100620.36;1706171;79;21631;-65
2021/04/13 10:58:06;;;;;;;2.10;1.47;;;;;;;23.00;43.01;100618.32;1786633;78;21153;-63
2021/04/13 11:01:07;;;;;;;3.80;1.67;;;;;;;23.02;42.94;100617.39;1782248;78;21123;-63
2021/04/13 11:04:13;;;;;;;2.15;1.55;;;;;;;23.02;42.89;100611.27;1786548;78;21192;-63
2021/04/13 11:07:17;;;;;;;3.17;1.70;;;;;;;23.05;42.88;100609.77;1778807;78;21200;-65
2021/04/13 11:10:22;;;;;;;2.17;1.50;;;;;;;23.07;42.84;100605.52;1783948;78;21137;-64
2021/04/13 11:13:06;;;;;;;2.60;1.70;;;;;;;23.08;42.80;100600.22;1781040;78;21178;-63
2021/04/13 11:16:14;;;;;;;2.20;1.50;;;;;;;23.08;42.77;100598.83;1782292;78;21071;-63
2021/04/13 11:19:08;;;;;;;3.58;1.55;;;;;;;23.09;42.77;100594.06;1767677;79;21238;-64
2021/04/13 11:21:58;;;;;;;3.10;1.30;;;;;;;23.11;42.74;100593.16;1770080;79;21221;-64
2021/04/13 11:24:56;;;;;;;2.00;1.42;;;;;;;23.11;42.70;100589.81;1772612;79;21153;-64
2021/04/13 11:28:12;;;;;;;2.85;1.67;;;;;;;23.12;42.67;100586.47;1785392;78;21199;-64
2021/04/13 11:31:05;;;;;;;5.00;1.60;;;;;;;23.11;42.63;100588.42;1775259;78;21423;-64
2021/04/13 11:33:44;;;;;;;2.27;1.47;;;;;;;23.13;42.61;100579.74;1783719;78;21593;-64
2021/04/13 11:36:43;;;;;;;3.72;1.22;;;;;;;23.13;42.56;100576.39;1781793;78;21733;-64
2021/04/13 11:39:30;;;;;;;2.45;1.60;;;;;;;23.13;42.54;100575.58;1782600;78;21252;-64
2021/04/13 11:42:24;;;;;;;3.30;1.30;;;;;;;23.14;42.53;100571.09;1789850;78;21133;-64
2021/04/13 11:45:08;;;;;;;2.75;1.40;;;;;;;23.15;42.50;100566.36;1787529;78;21557;-64
2021/04/13 11:48:02;;;;;;;2.50;1.50;;;;;;;23.16;42.48;100565.21;1785950;78;21192;-64
2021/04/13 11:50:51;;;;;;;1.90;1.40;;;;;;;23.14;42.46;100549.45;1806513;78;21181;-63
2021/04/13 11:53:35;;;;;;;4.60;1.35;;;;;;;23.14;42.41;100550.84;1808334;78;21626;-63
2021/04/13 11:56:28;;;;;;;1.95;1.35;;;;;;;23.12;42.42;100545.66;1795578;78;21190;-64
2021/04/13 11:59:16;;;;;;;3.60;1.55;;;;;;;23.12;42.40;100548.44;1803891;78;21198;-63
2021/04/13 12:01:46;;;;;;;2.65;1.55;;;;;;;23.11;42.40;100540.44;1723901;80;21286;-63
2021/04/13 12:04:28;;;;;;;1.82;1.20;;;;;;;23.14;42.38;100540.56;1830917;76;22747;-63
2021/04/13 12:07:04;;;;;;;2.27;1.60;;;;;;;23.11;42.40;100536.27;1809056;77;21277;-63
2021/04/13 12:09:57;;;;;;;2.12;1.50;;;;;;;23.10;42.41;100528.52;1716300;81;22046;-64
2021/04/13 12:12:36;;;;;;;2.25;1.45;;;;;;;23.11;42.37;100528.77;1750758;79;21498;-63
2021/04/13 12:15:14;;;;;;;1.87;1.05;;;;;;;23.12;42.36;100524.03;1746145;81;21078;-63
2021/04/13 12:17:44;;;;;;;1.35;0.98;;;;;;;23.10;42.35;100527.14;1750613;81;21047;-63
2021/04/13 12:20:33;;;;;;;1.72;1.30;;;;;;;23.09;42.33;100514.41;1754201;81;21045;-63
2021/04/13 12:23:11;;;;;;;1.65;1.17;;;;;;;23.08;42.31;100511.98;1761924;79;21497;-63
2021/04/13 12:25:54;;;;;;;3.47;1.42;;;;;;;23.07;42.31;100513.13;1757832;81;21224;-63
2021/04/13 12:28:37;;;;;;;2.70;1.40;;;;;;;23.04;42.34;100514.61;1738233;80;21499;-63
2021/04/13 12:31:23;;;;;;;1.10;0.90;;;;;;;23.01;42.34;100504.20;1756872;79;21184;-63
2021/04/13 12:34:06;;;;;;;1.80;1.17;;;;;;;22.99;42.36;100505.70;1751678;79;21513;-63